KIAD/IAD METAR and TAF weather

Enter ICAO airport designator
Station Type Date Time Source
KIAD METAR 2019/08/25 01:52 UTC NOAA

KIAD 250152Z 05005KT 10SM SCT080 19/13 A3021 RMK AO2 SLP228 T01940128 $


Station Type Date Time Source
KIAD Decoded METAR 2019/08/25 01:52 UTC NOAA

Station name not available
Aug 24, 2019 - 09:52 PM EDT / 2019.08.25 0152 UTC
Wind: from the NE (050 degrees) at 6 MPH (5 KT):0
Visibility: 10 mile(s):0
Sky conditions: partly cloudy
Temperature: 66.9 F (19.4 C)
Dew Point: 55.0 F (12.8 C)
Relative Humidity: 65%
Pressure (altimeter): 30.21 in. Hg (1023 hPa)
ob: KIAD 250152Z 05005KT 10SM SCT080 19/13 A3021 RMK AO2 SLP228 T01940128
cycle: 2

Station Type Date Time Source
KIAD TAF 2019/08/24 21:59 UTC NOAA

TAF
AMD KIAD 242059Z 2421/2524 01007KT P6SM BKN060 BKN100
FM250100 VRB03KT P6SM FEW050
FM251300 05007KT P6SM FEW045
FM251800 07009KT P6SM SCT050

Example: see airport list